Terminal Aerodrome Forecast
Issued by NWS Detroit/Pontiac, MI

Home | Current Version | Previous Version | Text Only | Print | Product List | Glossary On
Versions: 1 2 3 4 5 6 7 8 9 10 11 12 13 14 15 16 17 18 19 20 21 22 23 24 25
000
FTUS43 KDTX 270852 AAA
TAFDTW
TAF AMD
KDTW 270852Z 2709/2812 21005KT 6SM BR BKN250
     FM271300 20007KT P6SM SCT035 BKN250
     FM271600 19010KT P6SM BKN040
     FM280100 20006KT P6SM SCT060 BKN200=

USA.gov is the U.S. government's official web portal to all federal, state and local government web resources and services.